Terminal Aerodrome Forecast
Issued by NWS Huntsville, AL

Current Version | Previous Version | Text Only | Print | Product List | Glossary On
Versions: 1 2 3 4 5 6 7 8 9 10 11 12 13 14 15
000
FTUS44 KHUN 240520
TAFMSL
TAF
KMSL 240520Z 2406/2506 09003KT P6SM FEW250
     FM241400 19008KT P6SM SCT250
     FM241800 17010G18KT P6SM SCT050 BKN250
     FM250200 18012G22KT P6SM VCTS BKN035CB BKN050 OVC250
     FM250400 19012G22KT 4SM TSRA BR BKN025CB OVC050=

USA.gov is the U.S. government's official web portal to all federal, state and local government web resources and services.